CPX664 Details

Departure: Palm Beach International Airport (KPBI)
Arrival: Miami International Airport (KMIA)
Route: BUFIT2 HILEY HILEY7


Current Weather Information
KPBI 260953Z 31004KT 10SM FEW024 18/17 A3000 RMK AO2 SLP159 T01830172 $
KMIA 260953Z 29003KT 10SM FEW020 21/17 A3000 RMK AO2 SLP160 T02060172